Terminal Aerodrome Forecast
Issued by NWS

Home | Current Version | Previous Version | Text Only | Print | Product List | Glossary On
Versions: 1 2 3 4 5 6 7 8 9 10 11 12
000
FTUS44 KBMX 281134
TAFEET
TAF
KEET 281134Z 2812/2912 10003KT P6SM FEW080
     FM281600 11005KT P6SM SCT100
     FM290000 14004KT P6SM BKN080
     FM291100 13004KT P6SM VCTS BKN060CB=

USA.gov is the U.S. government's official web portal to all federal, state and local government web resources and services.